createdAt,value
2018-09-15T00:01:47.518Z,101174.00
2018-09-15T00:04:16.880Z,101176.00
2018-09-15T00:06:46.145Z,101172.00
2018-09-15T00:09:15.697Z,101173.00
2018-09-15T00:11:44.984Z,101183.00
2018-09-15T00:14:14.298Z,101175.00
2018-09-15T00:16:44.869Z,101170.00
2018-09-15T00:19:14.215Z,101175.00
2018-09-15T00:21:43.527Z,101166.00
2018-09-15T00:24:12.833Z,101174.00
2018-09-15T00:26:43.015Z,101165.00
2018-09-15T00:29:12.355Z,101167.00
2018-09-15T00:31:41.645Z,101168.00
2018-09-15T00:34:10.921Z,101182.00
2018-09-15T00:36:40.244Z,101167.00
2018-09-15T00:39:11.424Z,101184.00
2018-09-15T00:41:40.942Z,101177.00
2018-09-15T00:44:10.347Z,101189.00
2018-09-15T00:46:39.643Z,101193.00
2018-09-15T00:49:08.933Z,101201.00
2018-09-15T00:51:38.281Z,101214.00
2018-09-15T00:54:07.687Z,101202.00
2018-09-15T00:56:36.973Z,101203.00
2018-09-15T00:59:06.403Z,101206.00
2018-09-15T01:01:35.746Z,101202.00
2018-09-15T01:04:05.466Z,101209.00
2018-09-15T01:06:34.766Z,101204.00
2018-09-15T01:09:05.951Z,101199.00
2018-09-15T01:11:35.259Z,101193.00
2018-09-15T01:14:05.670Z,101197.00
2018-09-15T01:16:34.987Z,101200.00
2018-09-15T01:19:04.312Z,101201.00
2018-09-15T01:21:33.675Z,101205.00
2018-09-15T01:24:02.931Z,101189.00
2018-09-15T01:26:32.302Z,101188.00
2018-09-15T01:29:01.602Z,101175.00
2018-09-15T01:31:30.875Z,101183.00
2018-09-15T01:34:00.135Z,101187.00
2018-09-15T01:36:29.476Z,101190.00
2018-09-15T01:38:59.095Z,101179.00
2018-09-15T01:41:28.429Z,101186.00
2018-09-15T01:43:57.720Z,101178.00
2018-09-15T01:46:27.092Z,101172.00
2018-09-15T01:48:56.328Z,101184.00
2018-09-15T01:51:25.579Z,101183.00
2018-09-15T01:53:54.872Z,101181.00
2018-09-15T01:56:24.190Z,101177.00
2018-09-15T01:58:53.459Z,101183.00
2018-09-15T02:01:22.819Z,101187.00
2018-09-15T02:03:52.094Z,101184.00
2018-09-15T02:06:21.362Z,101187.00
2018-09-15T02:08:50.659Z,101184.00
2018-09-15T02:11:19.943Z,101180.00
2018-09-15T02:13:49.328Z,101180.00
2018-09-15T02:16:18.697Z,101176.00
2018-09-15T02:18:47.966Z,101173.00
2018-09-15T02:21:17.188Z,101184.00
2018-09-15T02:23:46.421Z,101183.00
2018-09-15T02:26:15.741Z,101182.00
2018-09-15T02:28:45.098Z,101169.00
2018-09-15T02:31:14.392Z,101177.00
2018-09-15T02:33:43.684Z,101170.00
2018-09-15T02:36:13.010Z,101172.00
2018-09-15T02:38:42.346Z,101177.00
2018-09-15T02:41:11.640Z,101175.00
2018-09-15T02:43:41.065Z,101179.00
2018-09-15T02:46:10.390Z,101185.00
2018-09-15T02:48:39.647Z,101185.00
2018-09-15T02:51:09.026Z,101188.00
2018-09-15T02:53:38.437Z,101185.00
2018-09-15T02:56:07.775Z,101191.00
2018-09-15T02:58:37.382Z,101190.00
2018-09-15T03:01:06.767Z,101188.00
2018-09-15T03:03:36.042Z,101183.00
2018-09-15T03:06:05.298Z,101184.00
2018-09-15T03:08:34.604Z,101194.00
2018-09-15T03:11:03.955Z,101190.00
2018-09-15T03:13:33.319Z,101188.00
2018-09-15T03:16:02.584Z,101197.00
2018-09-15T03:18:31.852Z,101194.00
2018-09-15T03:21:01.172Z,101188.00
2018-09-15T03:23:30.474Z,101183.00
2018-09-15T03:25:59.856Z,101188.00
2018-09-15T03:28:29.148Z,101187.00
2018-09-15T03:30:58.745Z,101197.00
2018-09-15T03:33:28.031Z,101186.00
2018-09-15T03:35:58.253Z,101197.00
2018-09-15T03:38:27.548Z,101192.00
2018-09-15T03:40:56.898Z,101179.00
2018-09-15T03:43:26.148Z,101192.00
2018-09-15T03:45:55.482Z,101197.00
2018-09-15T03:48:24.776Z,101192.00
2018-09-15T03:50:54.091Z,101193.00
2018-09-15T03:53:23.359Z,101195.00
2018-09-15T03:55:52.672Z,101199.00
2018-09-15T03:58:21.879Z,101206.00
2018-09-15T04:00:52.964Z,101208.00
2018-09-15T04:03:23.163Z,101205.00
2018-09-15T04:05:52.700Z,101203.00
2018-09-15T04:08:22.168Z,101206.00
2018-09-15T04:10:51.439Z,101198.00
2018-09-15T04:13:20.699Z,101205.00
2018-09-15T04:15:50.404Z,101206.00
2018-09-15T04:18:19.624Z,101221.00
2018-09-15T04:20:49.285Z,101207.00
2018-09-15T04:23:18.572Z,101216.00
2018-09-15T04:25:47.887Z,101213.00
2018-09-15T04:28:17.221Z,101214.00
2018-09-15T04:30:46.572Z,101213.00
2018-09-15T04:33:16.102Z,101222.00
2018-09-15T04:35:45.342Z,101220.00
2018-09-15T04:38:14.595Z,101222.00
2018-09-15T04:40:43.990Z,101213.00
2018-09-15T04:43:13.252Z,101214.00
2018-09-15T04:45:42.510Z,101215.00
2018-09-15T04:48:11.831Z,101224.00
2018-09-15T04:50:41.074Z,101222.00
2018-09-15T04:53:10.370Z,101227.00
2018-09-15T04:55:39.696Z,101231.00
2018-09-15T04:58:09.008Z,101234.00
2018-09-15T05:00:38.363Z,101232.00
2018-09-15T05:03:07.712Z,101228.00
2018-09-15T05:05:37.056Z,101235.00
2018-09-15T05:08:06.564Z,101239.00
2018-09-15T05:10:35.904Z,101236.00
2018-09-15T05:13:05.263Z,101233.00
2018-09-15T05:15:34.574Z,101241.00
2018-09-15T05:18:03.764Z,101246.00
2018-09-15T05:20:33.054Z,101251.00
2018-09-15T05:23:02.369Z,101255.00
2018-09-15T05:25:31.647Z,101252.00
2018-09-15T05:28:00.952Z,101247.00
2018-09-15T05:30:30.194Z,101244.00
2018-09-15T05:32:59.466Z,101249.00
2018-09-15T05:35:28.754Z,101257.00
2018-09-15T05:37:59.199Z,101262.00
2018-09-15T05:40:28.438Z,101255.00
2018-09-15T05:42:57.799Z,101263.00
2018-09-15T05:45:27.124Z,101252.00
2018-09-15T05:47:56.359Z,101266.00
2018-09-15T05:50:25.635Z,101268.00
2018-09-15T05:52:54.911Z,101263.00
2018-09-15T05:55:24.230Z,101263.00
2018-09-15T05:57:53.509Z,101269.00
2018-09-15T06:00:22.873Z,101285.00
2018-09-15T06:02:52.219Z,101286.00
2018-09-15T06:05:21.511Z,101291.00
2018-09-15T06:07:50.924Z,101286.00
2018-09-15T06:10:20.105Z,101304.00
2018-09-15T06:12:49.522Z,101295.00
2018-09-15T06:15:18.802Z,101313.00
2018-09-15T06:17:48.092Z,101324.00
2018-09-15T06:20:17.363Z,101324.00
2018-09-15T06:22:48.608Z,101324.00
2018-09-15T06:25:17.966Z,101314.00
2018-09-15T06:27:47.313Z,101309.00
2018-09-15T06:30:16.643Z,101320.00
2018-09-15T06:32:45.967Z,101320.00
2018-09-15T06:35:15.263Z,101305.00
2018-09-15T06:37:44.503Z,101310.00
2018-09-15T06:40:13.804Z,101309.00
2018-09-15T06:42:43.102Z,101305.00
2018-09-15T06:45:12.408Z,101318.00
2018-09-15T06:47:41.651Z,101322.00
2018-09-15T06:50:10.907Z,101329.00
2018-09-15T06:52:40.241Z,101330.00
2018-09-15T06:55:09.524Z,101330.00
2018-09-15T06:57:38.814Z,101336.00
2018-09-15T07:00:08.128Z,101333.00
2018-09-15T07:02:37.460Z,101338.00
2018-09-15T07:05:06.918Z,101344.00
2018-09-15T07:07:41.630Z,101346.00
2018-09-15T07:10:10.555Z,101355.00
2018-09-15T07:12:39.853Z,101355.00
2018-09-15T07:15:09.307Z,101357.00
2018-09-15T07:17:38.690Z,101361.00
2018-09-15T07:20:08.079Z,101365.00
2018-09-15T07:22:37.389Z,101365.00
2018-09-15T07:25:06.772Z,101369.00
2018-09-15T07:27:36.058Z,101366.00
2018-09-15T07:30:05.481Z,101367.00
2018-09-15T07:32:34.781Z,101369.00
2018-09-15T07:35:04.131Z,101367.00
2018-09-15T07:37:34.482Z,101373.00
2018-09-15T07:40:03.791Z,101368.00
2018-09-15T07:42:33.092Z,101377.00
2018-09-15T07:45:03.379Z,101372.00
2018-09-15T07:47:32.911Z,101381.00
2018-09-15T07:50:02.193Z,101385.00
2018-09-15T07:52:35.486Z,101383.00
2018-09-15T07:55:04.796Z,101384.00
2018-09-15T07:57:34.140Z,101395.00
2018-09-15T08:00:03.382Z,101399.00
2018-09-15T08:02:32.699Z,101397.00
2018-09-15T08:05:02.048Z,101396.00
2018-09-15T08:07:40.991Z,101407.00
2018-09-15T08:10:10.406Z,101407.00
2018-09-15T08:12:39.764Z,101407.00
2018-09-15T08:15:09.099Z,101422.00
2018-09-15T08:17:38.395Z,101419.00
2018-09-15T08:20:07.687Z,101423.00
2018-09-15T08:22:37.017Z,101425.00
2018-09-15T08:25:06.719Z,101422.00
2018-09-15T08:27:35.971Z,101417.00
2018-09-15T08:30:06.320Z,101415.00
2018-09-15T08:32:35.568Z,101417.00
2018-09-15T08:35:06.058Z,101424.00
2018-09-15T08:37:35.427Z,101421.00
2018-09-15T08:40:04.748Z,101421.00
2018-09-15T08:42:34.033Z,101426.00
2018-09-15T08:45:03.315Z,101427.00
2018-09-15T08:47:34.580Z,101429.00
2018-09-15T08:50:06.174Z,101436.00
2018-09-15T08:52:35.545Z,101431.00
2018-09-15T08:55:05.002Z,101421.00
2018-09-15T08:57:34.256Z,101421.00
2018-09-15T09:00:03.600Z,101436.00
2018-09-15T09:02:34.976Z,101437.00
2018-09-15T09:05:04.205Z,101431.00
2018-09-15T09:07:33.471Z,101445.00
2018-09-15T09:10:02.748Z,101449.00
2018-09-15T09:12:32.057Z,101449.00
2018-09-15T09:15:01.418Z,101442.00
2018-09-15T09:17:31.707Z,101446.00
2018-09-15T09:20:01.065Z,101448.00
2018-09-15T09:22:30.380Z,101447.00
2018-09-15T09:25:00.719Z,101451.00
2018-09-15T09:27:30.103Z,101448.00
2018-09-15T09:29:59.405Z,101453.00
2018-09-15T09:32:29.695Z,101456.00
2018-09-15T09:34:58.966Z,101465.00
2018-09-15T09:37:28.318Z,101462.00
2018-09-15T09:39:57.523Z,101463.00
2018-09-15T09:42:26.939Z,101465.00
2018-09-15T09:44:56.151Z,101463.00
2018-09-15T09:47:25.371Z,101475.00
2018-09-15T09:49:54.699Z,101472.00
2018-09-15T09:52:23.934Z,101481.00
2018-09-15T09:54:53.155Z,101466.00
2018-09-15T09:57:22.371Z,101467.00
2018-09-15T09:59:51.602Z,101475.00
2018-09-15T10:02:23.525Z,101481.00
2018-09-15T10:04:53.591Z,101480.00
2018-09-15T10:07:22.874Z,101477.00
2018-09-15T10:09:52.507Z,101470.00
2018-09-15T10:12:21.678Z,101468.00
2018-09-15T10:14:50.908Z,101476.00
2018-09-15T10:17:20.164Z,101472.00
2018-09-15T10:19:49.398Z,101472.00
2018-09-15T10:22:18.691Z,101466.00
2018-09-15T10:24:47.892Z,101475.00
2018-09-15T10:27:17.224Z,101477.00
2018-09-15T10:29:46.462Z,101467.00
2018-09-15T10:32:15.697Z,101459.00
2018-09-15T10:34:44.911Z,101466.00
2018-09-15T10:37:14.127Z,101469.00
2018-09-15T10:39:43.458Z,101472.00
2018-09-15T10:42:12.702Z,101478.00
2018-09-15T10:44:41.979Z,101466.00
2018-09-15T10:47:11.346Z,101473.00
2018-09-15T10:49:40.707Z,101480.00
2018-09-15T10:52:09.926Z,101480.00
2018-09-15T10:54:39.134Z,101490.00
2018-09-15T10:57:08.687Z,101480.00
2018-09-15T10:59:38.222Z,101479.00
2018-09-15T11:02:11.676Z,101474.00
2018-09-15T11:04:41.524Z,101474.00
2018-09-15T11:07:10.819Z,101468.00
2018-09-15T11:09:40.082Z,101468.00
2018-09-15T11:12:09.698Z,101478.00
2018-09-15T11:14:38.967Z,101467.00
2018-09-15T11:17:08.612Z,101473.00
2018-09-15T11:19:37.782Z,101463.00
2018-09-15T11:22:07.210Z,101467.00
2018-09-15T11:24:36.424Z,101470.00
2018-09-15T11:27:06.054Z,101484.00
2018-09-15T11:29:35.256Z,101465.00
2018-09-15T11:32:04.929Z,101478.00
2018-09-15T11:34:34.203Z,101482.00
2018-09-15T11:37:03.521Z,101474.00
2018-09-15T11:39:34.158Z,101482.00
2018-09-15T11:42:03.526Z,101492.00
2018-09-15T11:44:32.787Z,101485.00
2018-09-15T11:47:02.028Z,101484.00
2018-09-15T11:49:31.327Z,101492.00
2018-09-15T11:52:00.663Z,101482.00
2018-09-15T11:54:29.983Z,101483.00
2018-09-15T11:56:59.383Z,101489.00
2018-09-15T11:59:28.720Z,101483.00
2018-09-15T12:01:58.114Z,101491.00
2018-09-15T12:04:27.339Z,101489.00
2018-09-15T12:06:56.650Z,101497.00
2018-09-15T12:09:26.049Z,101493.00
2018-09-15T12:11:55.383Z,101501.00
2018-09-15T12:14:24.642Z,101494.00
2018-09-15T12:16:53.999Z,101496.00
2018-09-15T12:19:23.372Z,101494.00
2018-09-15T12:21:52.856Z,101491.00
2018-09-15T12:24:24.118Z,101500.00
2018-09-15T12:26:53.410Z,101505.00
2018-09-15T12:29:22.778Z,101499.00
2018-09-15T12:31:52.330Z,101501.00
2018-09-15T12:34:21.685Z,101500.00
2018-09-15T12:36:50.988Z,101503.00
2018-09-15T12:39:20.303Z,101507.00
2018-09-15T12:41:49.648Z,101504.00
2018-09-15T12:44:19.220Z,101499.00
2018-09-15T12:46:48.638Z,101504.00
2018-09-15T12:49:17.860Z,101507.00
2018-09-15T12:51:51.267Z,101494.00
2018-09-15T12:54:20.545Z,101503.00
2018-09-15T12:56:49.817Z,101504.00
2018-09-15T12:59:19.081Z,101501.00
2018-09-15T13:01:48.359Z,101493.00
2018-09-15T13:04:17.729Z,101501.00
2018-09-15T13:06:46.949Z,101514.00
2018-09-15T13:09:16.211Z,101504.00
2018-09-15T13:11:45.475Z,101501.00
2018-09-15T13:14:14.839Z,101506.00
2018-09-15T13:16:44.407Z,101506.00
2018-09-15T13:19:13.741Z,101499.00
2018-09-15T13:21:43.010Z,101501.00
2018-09-15T13:24:12.322Z,101504.00
2018-09-15T13:26:41.631Z,101494.00
2018-09-15T13:29:10.983Z,101497.00
2018-09-15T13:31:40.275Z,101493.00
2018-09-15T13:34:09.617Z,101499.00
2018-09-15T13:36:38.932Z,101495.00
2018-09-15T13:39:10.486Z,101498.00
2018-09-15T13:41:39.846Z,101497.00
2018-09-15T13:44:09.448Z,101501.00
2018-09-15T13:46:38.821Z,101497.00
2018-09-15T13:49:08.215Z,101501.00
2018-09-15T13:51:37.480Z,101494.00
2018-09-15T13:54:06.851Z,101493.00
2018-09-15T13:56:42.827Z,101493.00
2018-09-15T13:59:12.079Z,101492.00
2018-09-15T14:01:41.458Z,101503.00
2018-09-15T14:04:10.776Z,101504.00
2018-09-15T14:06:40.149Z,101516.00
2018-09-15T14:09:11.749Z,101518.00
2018-09-15T14:11:41.119Z,101512.00
2018-09-15T14:14:10.519Z,101512.00
2018-09-15T14:16:40.041Z,101520.00
2018-09-15T14:19:10.367Z,101526.00
2018-09-15T14:21:39.633Z,101533.00
2018-09-15T14:24:08.865Z,101534.00
2018-09-15T14:26:38.166Z,101526.00
2018-09-15T14:29:08.576Z,101529.00
2018-09-15T14:31:37.914Z,101533.00
2018-09-15T14:34:07.349Z,101526.00
2018-09-15T14:36:36.631Z,101519.00
2018-09-15T14:39:09.881Z,101517.00
2018-09-15T14:41:39.217Z,101518.00
2018-09-15T14:44:08.588Z,101513.00
2018-09-15T14:46:41.481Z,101507.00
2018-09-15T14:49:10.759Z,101513.00
2018-09-15T14:51:40.139Z,101515.00
2018-09-15T14:54:09.415Z,101510.00
2018-09-15T14:56:38.715Z,101509.00
2018-09-15T14:59:08.035Z,101515.00
2018-09-15T15:01:37.368Z,101516.00
2018-09-15T15:04:06.782Z,101521.00
2018-09-15T15:06:36.083Z,101512.00
2018-09-15T15:09:07.519Z,101512.00
2018-09-15T15:11:36.932Z,101518.00
2018-09-15T15:14:06.435Z,101516.00
2018-09-15T15:16:40.903Z,101523.00
2018-09-15T15:19:10.513Z,101515.00
2018-09-15T15:21:39.845Z,101519.00
2018-09-15T15:24:09.187Z,101524.00
2018-09-15T15:26:38.875Z,101525.00
2018-09-15T15:29:09.404Z,101525.00
2018-09-15T15:31:38.653Z,101523.00
2018-09-15T15:34:11.464Z,101518.00
2018-09-15T15:36:41.078Z,101517.00
2018-09-15T15:39:10.405Z,101519.00
2018-09-15T15:41:39.655Z,101524.00
2018-09-15T15:44:08.871Z,101519.00
2018-09-15T15:46:38.199Z,101517.00
2018-09-15T15:49:07.515Z,101519.00
2018-09-15T15:51:36.897Z,101524.00
2018-09-15T15:54:06.144Z,101528.00
2018-09-15T15:56:35.479Z,101536.00
2018-09-15T15:59:04.811Z,101534.00
2018-09-15T16:01:34.104Z,101539.00
2018-09-15T16:04:03.302Z,101535.00
2018-09-15T16:06:32.604Z,101534.00
2018-09-15T16:09:01.864Z,101537.00
2018-09-15T16:11:31.149Z,101538.00
2018-09-15T16:14:00.443Z,101539.00
2018-09-15T16:16:29.748Z,101529.00
2018-09-15T16:19:00.083Z,101528.00
2018-09-15T16:21:29.664Z,101532.00
2018-09-15T16:23:58.935Z,101537.00
2018-09-15T16:26:28.223Z,101537.00
2018-09-15T16:28:57.468Z,101534.00
2018-09-15T16:31:26.671Z,101535.00
2018-09-15T16:33:55.965Z,101539.00
2018-09-15T16:36:25.217Z,101534.00
2018-09-15T16:38:54.536Z,101539.00
2018-09-15T16:41:23.831Z,101543.00
2018-09-15T16:43:53.072Z,101546.00
2018-09-15T16:46:22.315Z,101544.00
2018-09-15T16:48:51.558Z,101545.00
2018-09-15T16:51:20.791Z,101540.00
2018-09-15T16:53:50.140Z,101542.00
2018-09-15T16:56:19.660Z,101544.00
2018-09-15T16:58:49.123Z,101544.00
2018-09-15T17:01:18.426Z,101549.00
2018-09-15T17:03:48.616Z,101552.00
2018-09-15T17:06:17.945Z,101553.00
2018-09-15T17:08:47.159Z,101547.00
2018-09-15T17:11:16.392Z,101541.00
2018-09-15T17:13:45.608Z,101549.00
2018-09-15T17:16:14.873Z,101546.00
2018-09-15T17:18:44.474Z,101556.00
2018-09-15T17:21:13.720Z,101546.00
2018-09-15T17:23:43.013Z,101554.00
2018-09-15T17:26:12.320Z,101553.00
2018-09-15T17:28:41.663Z,101552.00
2018-09-15T17:31:10.994Z,101549.00
2018-09-15T17:33:40.161Z,101559.00
2018-09-15T17:36:09.430Z,101548.00
2018-09-15T17:38:38.696Z,101556.00
2018-09-15T17:41:07.959Z,101552.00
2018-09-15T17:43:37.194Z,101553.00
2018-09-15T17:46:06.542Z,101566.00
2018-09-15T17:48:35.846Z,101568.00
2018-09-15T17:51:05.136Z,101576.00
2018-09-15T17:53:34.423Z,101572.00
2018-09-15T17:56:03.713Z,101581.00
2018-09-15T17:58:33.034Z,101581.00
2018-09-15T18:01:02.330Z,101575.00
2018-09-15T18:03:31.660Z,101577.00
2018-09-15T18:06:00.916Z,101570.00
2018-09-15T18:08:30.225Z,101588.00
2018-09-15T18:10:59.490Z,101587.00
2018-09-15T18:13:28.831Z,101579.00
2018-09-15T18:15:58.141Z,101585.00
2018-09-15T18:18:27.328Z,101590.00
2018-09-15T18:20:56.615Z,101587.00
2018-09-15T18:23:25.928Z,101592.00
2018-09-15T18:25:55.248Z,101599.00
2018-09-15T18:28:24.431Z,101600.00
2018-09-15T18:30:53.704Z,101607.00
2018-09-15T18:33:22.978Z,101612.00
2018-09-15T18:35:52.455Z,101604.00
2018-09-15T18:38:21.566Z,101603.00
2018-09-15T18:40:50.970Z,101614.00
2018-09-15T18:43:20.192Z,101622.00
2018-09-15T18:45:49.441Z,101623.00
2018-09-15T18:48:18.730Z,101628.00
2018-09-15T18:50:48.064Z,101627.00
2018-09-15T18:53:17.266Z,101636.00
2018-09-15T18:55:46.562Z,101639.00
2018-09-15T18:58:15.860Z,101633.00
2018-09-15T19:00:45.253Z,101631.00
2018-09-15T19:03:15.620Z,101638.00
2018-09-15T19:05:46.067Z,101633.00
2018-09-15T19:08:15.443Z,101638.00
2018-09-15T19:10:44.804Z,101640.00
2018-09-15T19:13:14.064Z,101643.00
2018-09-15T19:15:43.395Z,101642.00
2018-09-15T19:18:12.693Z,101638.00
2018-09-15T19:20:41.963Z,101646.00
2018-09-15T19:23:11.208Z,101641.00
2018-09-15T19:25:40.436Z,101639.00
2018-09-15T19:28:09.734Z,101634.00
2018-09-15T19:30:38.996Z,101642.00
2018-09-15T19:33:08.299Z,101645.00
2018-09-15T19:35:37.499Z,101640.00
2018-09-15T19:38:06.846Z,101651.00
2018-09-15T19:40:36.401Z,101650.00
2018-09-15T19:43:05.690Z,101657.00
2018-09-15T19:45:35.033Z,101651.00
2018-09-15T19:48:04.266Z,101657.00
2018-09-15T19:50:33.542Z,101657.00
2018-09-15T19:53:02.868Z,101662.00
2018-09-15T19:55:32.195Z,101656.00
2018-09-15T19:58:01.520Z,101667.00
2018-09-15T20:00:30.807Z,101669.00
2018-09-15T20:03:00.076Z,101665.00
2018-09-15T20:05:29.421Z,101664.00
2018-09-15T20:08:04.939Z,101674.00
2018-09-15T20:10:34.178Z,101669.00
2018-09-15T20:13:05.609Z,101673.00
2018-09-15T20:15:33.167Z,101679.00
2018-09-15T20:18:00.821Z,101671.00
2018-09-15T20:20:28.479Z,101675.00
2018-09-15T20:22:57.787Z,101675.00
2018-09-15T20:25:27.068Z,101689.00
2018-09-15T20:27:56.378Z,101678.00
2018-09-15T20:30:25.622Z,101682.00
2018-09-15T20:32:54.922Z,101685.00
2018-09-15T20:35:24.141Z,101682.00
2018-09-15T20:37:53.421Z,101675.00
2018-09-15T20:40:22.788Z,101681.00
2018-09-15T20:42:52.034Z,101681.00
2018-09-15T20:45:21.484Z,101687.00
2018-09-15T20:47:53.937Z,101692.00
2018-09-15T20:50:23.190Z,101688.00
2018-09-15T20:52:52.504Z,101681.00
2018-09-15T20:55:21.773Z,101682.00
2018-09-15T20:57:51.012Z,101684.00
2018-09-15T21:00:20.576Z,101684.00
2018-09-15T21:02:49.807Z,101688.00
2018-09-15T21:05:19.074Z,101688.00
2018-09-15T21:07:48.338Z,101693.00
2018-09-15T21:10:18.568Z,101690.00
2018-09-15T21:12:47.859Z,101694.00
2018-09-15T21:15:17.242Z,101691.00
2018-09-15T21:17:46.550Z,101698.00
2018-09-15T21:20:15.894Z,101695.00
2018-09-15T21:22:45.168Z,101691.00
2018-09-15T21:25:14.415Z,101688.00
2018-09-15T21:27:51.206Z,101695.00
2018-09-15T21:30:20.450Z,101696.00
2018-09-15T21:32:49.792Z,101699.00
2018-09-15T21:35:18.980Z,101696.00
2018-09-15T21:37:48.290Z,101712.00
2018-09-15T21:40:17.533Z,101702.00
2018-09-15T21:42:46.767Z,101705.00
2018-09-15T21:45:16.051Z,101700.00
2018-09-15T21:47:45.284Z,101697.00
2018-09-15T21:50:14.563Z,101695.00
2018-09-15T21:52:43.902Z,101695.00
2018-09-15T21:55:13.178Z,101692.00
2018-09-15T21:57:42.554Z,101691.00
2018-09-15T22:00:12.933Z,101695.00
2018-09-15T22:02:42.306Z,101694.00
2018-09-15T22:05:11.528Z,101693.00
2018-09-15T22:07:40.818Z,101692.00
2018-09-15T22:10:10.173Z,101698.00
2018-09-15T22:12:39.435Z,101698.00
2018-09-15T22:15:14.060Z,101704.00
2018-09-15T22:17:43.382Z,101708.00
2018-09-15T22:20:12.658Z,101699.00
2018-09-15T22:22:42.026Z,101700.00
2018-09-15T22:25:11.315Z,101704.00
2018-09-15T22:27:40.544Z,101706.00
2018-09-15T22:30:10.095Z,101699.00
2018-09-15T22:32:39.351Z,101705.00
2018-09-15T22:35:08.602Z,101702.00
2018-09-15T22:37:37.932Z,101703.00
2018-09-15T22:40:07.131Z,101701.00
2018-09-15T22:42:41.390Z,101714.00
2018-09-15T22:45:10.668Z,101709.00
2018-09-15T22:47:40.220Z,101704.00
2018-09-15T22:50:09.478Z,101709.00
2018-09-15T22:52:38.775Z,101700.00
2018-09-15T22:55:08.236Z,101707.00
2018-09-15T22:57:38.594Z,101702.00
2018-09-15T23:00:08.199Z,101696.00
2018-09-15T23:02:37.532Z,101702.00
2018-09-15T23:05:07.048Z,101693.00
2018-09-15T23:07:36.426Z,101691.00
2018-09-15T23:10:05.920Z,101697.00
2018-09-15T23:12:35.248Z,101692.00
2018-09-15T23:15:04.633Z,101694.00
2018-09-15T23:17:33.945Z,101688.00
2018-09-15T23:20:03.280Z,101700.00
2018-09-15T23:22:32.565Z,101697.00
2018-09-15T23:25:01.888Z,101700.00
2018-09-15T23:27:31.503Z,101701.00
2018-09-15T23:30:00.796Z,101688.00
2018-09-15T23:32:30.043Z,101686.00
2018-09-15T23:34:59.346Z,101688.00
2018-09-15T23:37:28.607Z,101692.00
2018-09-15T23:39:57.854Z,101687.00
2018-09-15T23:42:27.143Z,101696.00
2018-09-15T23:44:56.391Z,101685.00
2018-09-15T23:47:25.671Z,101688.00
2018-09-15T23:49:56.122Z,101683.00
2018-09-15T23:52:25.757Z,101683.00
2018-09-15T23:54:55.049Z,101674.00
2018-09-15T23:57:24.299Z,101677.00
2018-09-15T23:59:53.612Z,101682.00
